Time;durP1;ratioP1;P1;durP2;ratioP2;P2;SDS_P1;SDS_P2;PMS_P1;PMS_P2;Temp;Humidity;BMP_temperature;BMP_pressure;BME280_temperature;BME280_humidity;BME280_pressure;Samples;Min_cycle;Max_cycle;Signal;HPM_P1;HPM_P2
2022/10/29 00:00:40;;;;;;;8.60;5.57;;;12.20;99.90;;;;;;5031178;28;20259;-53
2022/10/29 00:03:07;;;;;;;11.90;6.30;;;12.10;99.90;;;;;;5024730;28;20212;-52
2022/10/29 00:05:35;;;;;;;12.20;7.13;;;12.10;99.90;;;;;;5032115;28;20225;-52
2022/10/29 00:08:02;;;;;;;13.73;7.60;;;12.20;99.90;;;;;;5024491;28;20222;-52
2022/10/29 00:10:29;;;;;;;9.70;7.73;;;12.20;99.90;;;;;;5032713;28;20308;-52
2022/10/29 00:13:00;;;;;;;10.23;7.17;;;12.20;99.90;;;;;;5033340;28;20275;-52
2022/10/29 00:15:27;;;;;;;13.47;8.53;;;12.10;99.90;;;;;;5033552;28;20321;-52
2022/10/29 00:17:54;;;;;;;9.83;8.00;;;12.00;99.90;;;;;;5033451;28;20625;-54
2022/10/29 00:20:22;;;;;;;11.47;7.33;;;12.00;99.90;;;;;;5033615;28;20201;-52
2022/10/29 00:22:52;;;;;;;12.13;9.13;;;12.00;99.90;;;;;;5031134;28;20293;-53
2022/10/29 00:25:19;;;;;;;12.63;8.83;;;12.10;99.90;;;;;;5027486;28;20306;-53
2022/10/29 00:27:46;;;;;;;15.03;8.97;;;12.10;99.90;;;;;;5033380;28;20778;-52
2022/10/29 00:30:15;;;;;;;20.13;8.97;;;12.10;99.90;;;;;;5031737;28;20241;-52
2022/10/29 00:32:42;;;;;;;16.00;9.53;;;12.10;99.90;;;;;;5033115;28;20195;-52
2022/10/29 00:35:09;;;;;;;15.30;10.60;;;12.10;99.90;;;;;;5032981;28;20236;-51
2022/10/29 00:37:36;;;;;;;11.53;10.33;;;12.10;99.90;;;;;;5031690;28;20279;-52
2022/10/29 00:40:04;;;;;;;16.10;11.33;;;12.10;99.90;;;;;;5031602;28;20653;-52
2022/10/29 00:42:31;;;;;;;11.93;9.47;;;12.00;99.90;;;;;;5033493;28;20212;-52
2022/10/29 00:44:58;;;;;;;12.17;9.87;;;12.00;99.90;;;;;;5033041;28;20278;-52
2022/10/29 00:47:30;;;;;;;17.90;9.20;;;12.00;99.90;;;;;;5033054;28;20308;-52
2022/10/29 00:50:02;;;;;;;10.80;8.83;;;11.90;99.90;;;;;;5031377;28;20635;-52
2022/10/29 00:52:32;;;;;;;13.73;9.53;;;11.80;99.90;;;;;;5033034;28;20671;-52
2022/10/29 00:55:03;;;;;;;11.27;8.10;;;11.70;99.90;;;;;;5031976;28;20286;-52
2022/10/29 00:57:34;;;;;;;10.70;9.47;;;11.70;99.90;;;;;;5032945;28;20264;-53
2022/10/29 01:00:02;;;;;;;10.33;8.83;;;11.60;99.90;;;;;;5032989;28;20276;-54
2022/10/29 01:02:33;;;;;;;15.93;9.43;;;11.60;99.90;;;;;;5031295;28;20260;-54
2022/10/29 01:05:01;;;;;;;11.50;10.07;;;11.60;99.90;;;;;;5032254;28;20284;-55
2022/10/29 01:07:29;;;;;;;11.43;9.67;;;11.60;99.90;;;;;;5032470;28;20202;-52
2022/10/29 01:09:56;;;;;;;9.80;8.57;;;11.60;99.90;;;;;;5032771;28;20209;-52
2022/10/29 01:12:45;;;;;;;11.20;8.37;;;11.60;99.90;;;;;;5029968;28;20587;-52
2022/10/29 01:15:20;;;;;;;10.97;9.73;;;11.50;99.90;;;;;;5027368;28;20221;-52
2022/10/29 01:18:03;;;;;;;15.70;9.50;;;11.70;99.90;;;;;;5032394;28;20254;-52
2022/10/29 01:20:56;;;;;;;13.37;11.07;;;11.80;99.90;;;;;;5032542;28;20272;-52
2022/10/29 01:23:48;;;;;;;10.47;9.23;;;11.80;99.90;;;;;;5031055;28;20200;-53
2022/10/29 01:26:43;;;;;;;16.97;11.07;;;11.80;99.90;;;;;;5031217;28;20208;-53
2022/10/29 01:29:47;;;;;;;11.93;9.77;;;11.80;99.90;;;;;;5012591;28;20233;-52
2022/10/29 01:32:18;;;;;;;13.77;9.53;;;11.80;99.90;;;;;;5012401;28;20743;-52
2022/10/29 01:34:52;;;;;;;15.47;12.03;;;11.80;99.90;;;;;;5013575;28;20290;-53
2022/10/29 01:37:26;;;;;;;26.27;10.97;;;11.80;99.90;;;;;;5031267;28;20213;-52
2022/10/29 01:39:57;;;;;;;16.43;10.77;;;11.80;99.90;;;;;;5031977;28;20195;-52
2022/10/29 01:42:30;;;;;;;17.00;11.20;;;12.00;99.90;;;;;;5032096;28;20747;-52
2022/10/29 01:45:06;;;;;;;13.93;10.40;;;12.10;99.90;;;;;;5031664;28;20220;-52
2022/10/29 01:47:40;;;;;;;11.63;9.60;;;12.10;99.90;;;;;;5030910;28;20270;-52
2022/10/29 01:50:13;;;;;;;11.30;9.63;;;12.00;99.90;;;;;;5024315;28;20640;-52
2022/10/29 01:52:41;;;;;;;15.83;11.87;;;12.00;99.90;;;;;;5030609;28;20609;-52
2022/10/29 01:55:09;;;;;;;10.67;9.63;;;12.00;99.90;;;;;;5031157;28;20279;-52
2022/10/29 01:57:38;;;;;;;13.03;10.17;;;12.00;99.90;;;;;;5031648;28;20288;-52
2022/10/29 02:00:07;;;;;;;12.17;9.73;;;12.00;99.90;;;;;;5030557;28;20664;-52
2022/10/29 02:02:49;;;;;;;16.33;10.27;;;12.00;99.90;;;;;;5031535;28;20195;-51
2022/10/29 02:05:24;;;;;;;11.07;9.97;;;12.10;99.90;;;;;;5031469;28;20284;-54
2022/10/29 02:07:57;;;;;;;11.93;9.07;;;12.10;99.90;;;;;;5031439;28;20216;-51
2022/10/29 02:10:29;;;;;;;14.77;9.83;;;12.10;99.90;;;;;;5030471;28;20666;-59
2022/10/29 02:12:57;;;;;;;17.77;10.33;;;12.00;99.90;;;;;;5029620;28;20210;-51
2022/10/29 02:15:29;;;;;;;29.80;10.07;;;12.00;99.90;;;;;;5031200;28;20291;-54
2022/10/29 02:18:01;;;;;;;16.37;10.60;;;12.10;99.90;;;;;;5029679;28;20783;-54
2022/10/29 02:20:28;;;;;;;16.00;9.63;;;12.20;99.90;;;;;;5031319;28;20212;-51
2022/10/29 02:22:56;;;;;;;13.43;11.07;;;12.10;99.90;;;;;;5031308;28;20206;-52
2022/10/29 02:25:23;;;;;;;14.67;9.23;;;12.10;99.90;;;;;;5031121;28;20236;-51
2022/10/29 02:27:50;;;;;;;15.70;11.27;;;12.20;99.90;;;;;;5028012;28;20206;-52
2022/10/29 02:30:17;;;;;;;12.03;10.43;;;12.20;99.90;;;;;;5031239;28;20213;-52
2022/10/29 02:32:44;;;;;;;16.27;9.60;;;12.20;99.90;;;;;;5031257;28;20206;-52
2022/10/29 02:35:13;;;;;;;9.63;8.73;;;12.20;99.90;;;;;;5030486;28;20234;-51
2022/10/29 02:37:40;;;;;;;14.40;10.87;;;12.10;99.90;;;;;;5030891;28;20208;-51
2022/10/29 02:40:08;;;;;;;14.30;9.10;;;12.10;99.90;;;;;;5028945;28;20205;-52
2022/10/29 02:42:35;;;;;;;13.10;9.40;;;12.10;99.90;;;;;;5030862;28;20675;-51
2022/10/29 02:45:02;;;;;;;12.60;9.70;;;12.10;99.90;;;;;;5029521;28;20225;-53
2022/10/29 02:47:29;;;;;;;13.43;9.03;;;12.10;99.90;;;;;;5030826;28;20616;-52
2022/10/29 02:49:56;;;;;;;10.50;9.43;;;12.00;99.90;;;;;;5031107;28;20245;-52
2022/10/29 02:52:25;;;;;;;11.53;8.67;;;12.00;99.90;;;;;;5029068;28;20207;-52
2022/10/29 02:54:52;;;;;;;11.77;8.30;;;12.00;99.90;;;;;;5030673;28;20217;-54
2022/10/29 02:57:19;;;;;;;12.90;9.20;;;11.90;99.90;;;;;;5031017;28;20209;-52
2022/10/29 02:59:46;;;;;;;11.77;8.87;;;11.80;99.90;;;;;;5029868;28;20272;-52
2022/10/29 03:02:13;;;;;;;11.10;7.93;;;11.80;99.90;;;;;;5030826;28;20731;-53
2022/10/29 03:04:40;;;;;;;11.30;8.83;;;11.80;99.90;;;;;;5028492;28;20304;-54
2022/10/29 03:07:07;;;;;;;11.33;8.83;;;11.70;99.90;;;;;;5030661;28;20197;-52
2022/10/29 03:09:35;;;;;;;10.67;8.77;;;11.80;99.90;;;;;;5030884;28;20226;-52
2022/10/29 03:12:02;;;;;;;12.13;8.83;;;11.80;99.90;;;;;;5030858;28;20207;-54
2022/10/29 03:14:29;;;;;;;14.53;9.33;;;11.70;99.90;;;;;;5030495;28;20229;-51
2022/10/29 03:16:56;;;;;;;14.67;9.63;;;11.70;99.90;;;;;;5027784;28;20766;-51
2022/10/29 03:19:23;;;;;;;11.30;9.50;;;11.70;99.90;;;;;;5031155;28;20199;-52
2022/10/29 03:21:50;;;;;;;12.63;9.50;;;11.70;99.90;;;;;;5031101;28;20204;-52
2022/10/29 03:24:17;;;;;;;22.30;14.13;;;11.80;99.90;;;;;;5030762;28;20310;-53
2022/10/29 03:26:46;;;;;;;18.33;13.73;;;11.80;99.90;;;;;;5030877;28;20267;-52
2022/10/29 03:29:13;;;;;;;18.23;14.17;;;11.80;99.90;;;;;;5029783;28;20221;-52
2022/10/29 03:31:40;;;;;;;17.80;13.67;;;11.80;99.90;;;;;;5030656;28;20245;-53
2022/10/29 03:34:07;;;;;;;15.73;10.27;;;11.80;99.90;;;;;;5028649;28;20240;-52
2022/10/29 03:36:34;;;;;;;13.63;10.07;;;11.80;99.90;;;;;;5029705;28;20204;-53
2022/10/29 03:39:01;;;;;;;16.03;12.77;;;11.70;99.90;;;;;;5028526;28;20244;-52
2022/10/29 03:41:28;;;;;;;13.60;11.23;;;11.80;99.90;;;;;;5029494;28;20661;-55
2022/10/29 03:43:56;;;;;;;21.63;12.07;;;11.80;99.90;;;;;;5030208;28;20226;-54
2022/10/29 03:46:23;;;;;;;20.57;12.60;;;11.80;99.90;;;;;;5030787;28;20264;-54
2022/10/29 03:48:54;;;;;;;20.93;12.00;;;11.70;99.90;;;;;;5033751;28;20568;-52
2022/10/29 03:51:21;;;;;;;13.80;9.77;;;11.70;99.90;;;;;;5032834;28;20275;-52
2022/10/29 03:53:48;;;;;;;11.93;10.73;;;11.70;99.90;;;;;;5032709;28;20251;-51
2022/10/29 03:56:15;;;;;;;12.57;10.63;;;11.70;99.90;;;;;;5033716;28;20251;-52
2022/10/29 03:58:42;;;;;;;14.23;10.77;;;11.70;99.90;;;;;;5034020;28;20207;-51
2022/10/29 04:01:10;;;;;;;12.63;10.17;;;11.70;99.90;;;;;;5034068;28;20256;-53
2022/10/29 04:03:41;;;;;;;13.30;10.20;;;11.70;99.90;;;;;;5033714;28;20204;-52
2022/10/29 04:06:11;;;;;;;13.47;10.53;;;11.70;99.90;;;;;;5032552;28;20288;-52
2022/10/29 04:08:38;;;;;;;12.20;8.67;;;11.70;99.90;;;;;;5031065;28;20760;-52
2022/10/29 04:11:06;;;;;;;12.17;9.40;;;11.70;99.90;;;;;;5032876;28;20282;-51
2022/10/29 04:13:33;;;;;;;13.67;9.23;;;11.70;99.90;;;;;;5032140;28;20208;-50
2022/10/29 04:16:00;;;;;;;11.93;8.93;;;11.70;99.90;;;;;;5032142;28;20679;-52
2022/10/29 04:18:29;;;;;;;9.43;8.37;;;11.60;99.90;;;;;;5032306;28;20197;-51
2022/10/29 04:21:00;;;;;;;12.27;7.70;;;11.60;99.90;;;;;;5031314;28;20248;-51
2022/10/29 04:23:27;;;;;;;10.63;8.73;;;11.60;99.90;;;;;;5027721;28;20315;-54
2022/10/29 04:25:56;;;;;;;12.07;9.33;;;11.60;99.90;;;;;;5031980;28;20639;-50
2022/10/29 04:28:23;;;;;;;11.87;9.33;;;11.60;99.90;;;;;;5032027;28;20357;-53
2022/10/29 04:30:50;;;;;;;10.83;9.83;;;11.60;99.90;;;;;;5031988;28;20404;-52
2022/10/29 04:33:18;;;;;;;13.13;9.93;;;11.60;99.90;;;;;;5031813;28;20738;-54
2022/10/29 04:35:52;;;;;;;16.90;11.67;;;11.60;99.90;;;;;;5031467;28;20271;-54
2022/10/29 04:38:20;;;;;;;21.10;11.87;;;11.70;99.90;;;;;;5030255;28;20339;-54
2022/10/29 04:40:47;;;;;;;17.53;10.83;;;11.70;99.90;;;;;;5031820;28;20209;-54
2022/10/29 04:43:14;;;;;;;17.83;12.23;;;11.80;99.90;;;;;;5031443;28;20205;-53
2022/10/29 04:45:41;;;;;;;20.10;11.33;;;11.80;99.90;;;;;;5031771;28;20282;-53
2022/10/29 04:48:08;;;;;;;11.63;10.43;;;11.80;99.90;;;;;;5031730;28;20296;-51
2022/10/29 04:50:38;;;;;;;18.23;11.40;;;11.80;99.90;;;;;;5031610;28;20265;-52
2022/10/29 04:53:08;;;;;;;12.80;11.30;;;11.90;99.90;;;;;;5031571;28;20209;-51
2022/10/29 04:55:37;;;;;;;14.87;10.43;;;11.90;99.90;;;;;;5030494;28;20312;-51
2022/10/29 04:58:04;;;;;;;16.03;11.00;;;11.90;99.90;;;;;;5027274;28;20281;-52
2022/10/29 05:00:31;;;;;;;11.70;9.87;;;11.80;99.90;;;;;;5030803;28;20264;-52
2022/10/29 05:02:59;;;;;;;12.10;10.37;;;11.80;99.90;;;;;;5031274;28;20201;-55
2022/10/29 05:05:26;;;;;;;12.17;9.93;;;11.70;99.90;;;;;;5031249;28;20282;-53
2022/10/29 05:07:58;;;;;;;12.80;10.50;;;11.70;99.90;;;;;;5031241;28;20637;-51
2022/10/29 05:10:27;;;;;;;11.07;9.83;;;11.70;99.90;;;;;;5031106;28;20225;-51
2022/10/29 05:12:59;;;;;;;17.70;11.47;;;11.60;99.90;;;;;;5030189;28;20201;-53
2022/10/29 05:15:26;;;;;;;16.90;11.63;;;11.60;99.90;;;;;;5030804;28;20308;-54
2022/10/29 05:17:54;;;;;;;13.70;11.07;;;11.50;99.90;;;;;;5030947;28;20194;-53
2022/10/29 05:20:21;;;;;;;15.40;10.30;;;11.50;99.90;;;;;;5031102;28;20247;-51
2022/10/29 05:22:48;;;;;;;12.50;9.03;;;11.40;99.90;;;;;;5030808;28;20208;-53
2022/10/29 05:25:15;;;;;;;13.73;9.57;;;11.40;99.90;;;;;;5030799;28;20223;-52
2022/10/29 05:27:43;;;;;;;11.70;9.40;;;11.40;99.90;;;;;;5028964;28;20203;-55
2022/10/29 05:30:11;;;;;;;9.23;8.43;;;11.40;99.90;;;;;;5029327;28;20217;-53
2022/10/29 05:32:38;;;;;;;11.53;10.00;;;11.40;99.90;;;;;;5030608;28;20208;-54
2022/10/29 05:35:05;;;;;;;18.50;11.43;;;11.40;99.90;;;;;;5029953;28;20636;-51
2022/10/29 05:37:32;;;;;;;14.70;9.70;;;11.40;99.90;;;;;;5030647;28;20671;-54
2022/10/29 05:39:59;;;;;;;14.83;9.83;;;11.40;99.90;;;;;;5030863;28;20201;-54
2022/10/29 05:42:26;;;;;;;16.13;11.90;;;11.30;99.90;;;;;;5030750;28;20237;-53
2022/10/29 05:44:55;;;;;;;14.90;11.60;;;11.30;99.90;;;;;;5029326;28;20218;-51
2022/10/29 05:47:22;;;;;;;24.40;13.73;;;11.40;99.90;;;;;;5030439;28;20203;-55
2022/10/29 05:49:49;;;;;;;21.33;12.30;;;11.40;99.90;;;;;;5030298;28;20268;-54
2022/10/29 05:52:16;;;;;;;16.30;13.50;;;11.50;99.90;;;;;;5030704;28;20205;-52
2022/10/29 05:54:43;;;;;;;15.23;11.50;;;11.50;99.90;;;;;;5030284;28;20221;-53
2022/10/29 05:57:10;;;;;;;18.07;12.30;;;11.50;99.90;;;;;;5031310;28;20205;-51
2022/10/29 05:59:37;;;;;;;14.90;11.47;;;11.50;99.90;;;;;;5031246;28;20199;-53
2022/10/29 06:02:05;;;;;;;16.20;10.87;;;11.50;99.90;;;;;;5030272;28;20299;-52
2022/10/29 06:04:34;;;;;;;14.10;10.13;;;11.40;99.90;;;;;;5031577;28;20272;-52
2022/10/29 06:07:01;;;;;;;12.57;10.27;;;11.40;99.90;;;;;;5031407;28;20210;-53
2022/10/29 06:09:28;;;;;;;12.93;9.77;;;11.50;99.90;;;;;;5031467;28;20218;-52
2022/10/29 06:11:55;;;;;;;13.23;10.83;;;11.40;99.90;;;;;;5031453;28;20629;-52
2022/10/29 06:14:23;;;;;;;12.60;10.27;;;11.40;99.90;;;;;;5031148;28;20221;-52
2022/10/29 06:16:49;;;;;;;12.57;10.27;;;11.40;99.90;;;;;;5030391;28;20204;-52
2022/10/29 06:19:18;;;;;;;18.73;10.60;;;11.40;99.90;;;;;;5031322;28;20557;-51
2022/10/29 06:21:45;;;;;;;11.83;10.63;;;11.40;99.90;;;;;;5027593;28;20212;-51
2022/10/29 06:24:12;;;;;;;15.30;10.00;;;11.50;99.90;;;;;;5024161;28;20643;-52
2022/10/29 06:26:39;;;;;;;18.63;11.40;;;11.40;99.90;;;;;;5031047;28;20236;-51
2022/10/29 06:29:07;;;;;;;12.90;9.30;;;11.50;99.90;;;;;;5030986;28;20284;-52
2022/10/29 06:31:34;;;;;;;12.67;10.23;;;11.50;99.90;;;;;;5031157;28;20730;-52
2022/10/29 06:34:01;;;;;;;12.50;9.50;;;11.60;99.90;;;;;;5031071;28;20298;-52
2022/10/29 06:36:29;;;;;;;12.50;9.33;;;11.70;99.90;;;;;;5030633;28;20205;-53
2022/10/29 06:38:56;;;;;;;11.90;10.20;;;11.70;99.90;;;;;;5029050;28;20631;-53
2022/10/29 06:41:26;;;;;;;11.03;8.77;;;11.80;99.90;;;;;;5030770;28;20348;-52
2022/10/29 06:43:56;;;;;;;11.27;9.27;;;11.80;99.90;;;;;;5030807;28;20323;-52
2022/10/29 06:46:22;;;;;;;11.27;9.70;;;11.90;99.90;;;;;;5029676;28;20208;-52
2022/10/29 06:48:49;;;;;;;20.43;9.80;;;11.90;99.90;;;;;;5031151;28;20202;-52
2022/10/29 06:51:16;;;;;;;14.33;9.53;;;12.00;99.90;;;;;;5031007;28;20224;-52
2022/10/29 06:53:45;;;;;;;11.43;10.27;;;12.00;99.90;;;;;;5029924;28;20243;-51
2022/10/29 06:56:12;;;;;;;11.17;9.07;;;12.10;99.90;;;;;;5030768;28;20754;-53
2022/10/29 06:58:39;;;;;;;11.47;8.73;;;12.20;99.90;;;;;;5031004;28;20222;-52
2022/10/29 07:01:06;;;;;;;14.97;9.07;;;12.20;99.90;;;;;;5031102;28;20260;-51
2022/10/29 07:03:33;;;;;;;9.27;7.50;;;12.30;99.90;;;;;;5029910;28;20206;-52
2022/10/29 07:06:00;;;;;;;10.33;8.40;;;12.40;99.90;;;;;;5030078;28;20843;-51
2022/10/29 07:08:27;;;;;;;12.10;7.80;;;12.50;99.90;;;;;;5029667;28;20206;-52
2022/10/29 07:10:56;;;;;;;9.73;7.60;;;12.60;99.90;;;;;;5028933;28;20592;-52
2022/10/29 07:13:23;;;;;;;9.87;7.27;;;12.70;99.90;;;;;;5030631;28;20263;-51
2022/10/29 07:15:50;;;;;;;13.90;9.27;;;12.80;99.90;;;;;;5030635;28;20230;-52
2022/10/29 07:18:17;;;;;;;12.77;7.23;;;12.90;99.90;;;;;;5025718;28;20265;-52
2022/10/29 07:20:45;;;;;;;15.33;8.17;;;13.00;99.90;;;;;;5030275;28;20198;-51
2022/10/29 07:23:13;;;;;;;20.67;9.53;;;13.00;99.90;;;;;;5032564;28;20214;-51
2022/10/29 07:25:41;;;;;;;12.90;8.23;;;13.10;99.90;;;;;;5033975;28;20232;-51
2022/10/29 07:28:13;;;;;;;10.47;6.37;;;13.20;99.90;;;;;;5030257;28;20249;-51
2022/10/29 07:30:40;;;;;;;17.07;6.63;;;13.30;99.90;;;;;;5033914;28;20272;-51
2022/10/29 07:33:07;;;;;;;15.00;8.10;;;13.40;99.90;;;;;;5033719;28;20205;-51
2022/10/29 07:35:35;;;;;;;10.30;6.47;;;13.50;99.90;;;;;;5033835;28;20230;-51
2022/10/29 07:38:03;;;;;;;10.03;5.23;;;13.60;99.90;;;;;;5032563;28;20211;-50
2022/10/29 07:40:30;;;;;;;6.27;3.47;;;13.80;99.90;;;;;;5030760;28;20191;-50
2022/10/29 07:42:57;;;;;;;5.30;2.73;;;14.00;99.90;;;;;;5032597;28;20669;-50
2022/10/29 07:45:26;;;;;;;6.27;3.87;;;14.20;99.90;;;;;;5032925;28;20704;-49
2022/10/29 07:48:00;;;;;;;8.30;3.17;;;14.30;99.90;;;;;;5033263;28;20202;-50
2022/10/29 07:50:27;;;;;;;4.33;3.70;;;14.50;99.90;;;;;;5032418;28;20762;-50
2022/10/29 07:52:54;;;;;;;7.57;4.03;;;14.60;99.90;;;;;;5033440;28;20570;-50
2022/10/29 07:55:21;;;;;;;10.17;4.33;;;14.70;99.90;;;;;;5028971;28;20230;-50
2022/10/29 07:57:57;;;;;;;10.77;5.00;;;14.90;99.90;;;;;;5033477;28;20202;-50
2022/10/29 08:00:25;;;;;;;11.33;4.73;;;15.00;99.90;;;;;;5021942;28;20198;-50
2022/10/29 08:02:53;;;;;;;8.30;4.53;;;15.10;99.90;;;;;;5033368;28;20199;-50
2022/10/29 08:05:21;;;;;;;5.43;3.57;;;15.20;99.90;;;;;;5031760;28;20301;-50
2022/10/29 08:07:48;;;;;;;4.70;3.20;;;15.20;99.90;;;;;;5031973;28;20194;-50
2022/10/29 08:10:15;;;;;;;11.37;3.47;;;15.20;99.90;;;;;;5032388;28;20306;-50
2022/10/29 08:12:49;;;;;;;8.00;3.27;;;15.30;99.90;;;;;;5031898;28;20572;-50
2022/10/29 08:15:16;;;;;;;6.83;2.70;;;15.40;99.90;;;;;;5031381;28;20720;-50
2022/10/29 08:17:45;;;;;;;8.60;3.13;;;15.40;99.90;;;;;;5027651;28;20580;-50
2022/10/29 08:20:13;;;;;;;3.38;2.13;;;15.60;99.90;;;;;;5028160;28;20461;-50
2022/10/29 08:22:40;;;;;;;9.20;4.03;;;15.80;99.90;;;;;;5032001;28;20269;-50
2022/10/29 08:25:08;;;;;;;10.73;2.60;;;15.90;99.90;;;;;;5030783;28;20277;-50
2022/10/29 08:27:35;;;;;;;7.97;3.33;;;16.00;99.90;;;;;;5032487;28;20637;-50
2022/10/29 08:30:02;;;;;;;6.67;1.97;;;16.20;99.90;;;;;;5032864;28;20233;-50
2022/10/29 08:32:29;;;;;;;19.97;2.80;;;16.30;99.90;;;;;;5032601;28;20229;-50
2022/10/29 08:34:57;;;;;;;5.10;2.17;;;16.50;99.90;;;;;;5029214;28;20230;-49
2022/10/29 08:37:24;;;;;;;11.77;2.60;;;16.70;99.90;;;;;;5031249;28;20217;-50
2022/10/29 08:39:51;;;;;;;4.57;1.83;;;16.90;99.90;;;;;;5028626;28;20253;-50
2022/10/29 08:42:35;;;;;;;15.57;4.00;;;17.10;99.90;;;;;;5027338;28;20561;-50
2022/10/29 08:45:20;;;;;;;8.80;2.47;;;17.50;99.90;;;;;;5022090;28;20226;-50
2022/10/29 08:48:04;;;;;;;9.57;2.17;;;18.10;99.90;;;;;;5029196;28;20201;-50
2022/10/29 08:50:39;;;;;;;9.77;2.33;;;18.90;99.90;;;;;;5026380;28;20225;-50
2022/10/29 08:53:17;;;;;;;11.43;2.07;;;19.80;99.90;;;;;;5025967;28;20294;-49
2022/10/29 08:55:45;;;;;;;4.90;1.80;;;20.60;99.90;;;;;;5028311;28;20218;-50
2022/10/29 08:58:23;;;;;;;4.77;2.00;;;21.20;99.90;;;;;;5029455;28;20663;-53
2022/10/29 09:00:55;;;;;;;7.22;2.55;;;21.80;99.90;;;;;;5026049;28;20931;-50
2022/10/29 09:03:24;;;;;;;6.63;2.13;;;22.20;99.90;;;;;;5029535;28;20207;-51
2022/10/29 09:06:05;;;;;;;13.47;3.27;;;22.20;99.90;;;;;;5029833;28;20214;-50
2022/10/29 09:08:54;;;;;;;8.27;2.83;;;22.40;99.90;;;;;;5027730;28;20197;-51
2022/10/29 09:11:33;;;;;;;7.30;2.70;;;22.60;99.90;;;;;;5022042;28;20218;-51
2022/10/29 09:14:17;;;;;;;14.93;2.43;;;22.60;99.90;;;;;;5027682;28;20229;-51
2022/10/29 09:16:51;;;;;;;6.60;1.67;;;22.80;99.90;;;;;;5029176;28;20203;-50
2022/10/29 09:19:32;;;;;;;7.97;3.43;;;22.90;99.90;;;;;;5028899;28;20562;-50
2022/10/29 09:22:09;;;;;;;7.23;2.20;;;23.00;99.90;;;;;;5027938;28;20827;-51
2022/10/29 09:24:44;;;;;;;11.33;2.00;;;23.40;99.90;;;;;;5031059;28;20222;-51
2022/10/29 09:27:15;;;;;;;5.20;1.73;;;23.60;99.90;;;;;;5027906;28;20210;-50
2022/10/29 09:29:58;;;;;;;9.17;2.27;;;23.80;99.90;;;;;;5029268;28;20206;-50
2022/10/29 09:32:29;;;;;;;8.67;2.80;;;23.90;99.90;;;;;;5025500;28;20198;-51
2022/10/29 09:35:01;;;;;;;9.63;2.50;;;23.90;99.90;;;;;;5053307;22;20250;-53
2022/10/29 09:37:38;;;;;;;6.60;2.30;;;23.90;99.90;;;;;;5024249;28;20272;-52
2022/10/29 09:40:13;;;;;;;8.80;2.23;;;23.90;99.90;;;;;;5028548;28;20705;-52
2022/10/29 09:42:43;;;;;;;6.40;2.57;;;24.00;99.90;;;;;;5028546;28;20201;-52
2022/10/29 09:45:16;;;;;;;4.87;2.17;;;24.40;99.90;;;;;;5030212;28;20218;-52
2022/10/29 09:47:53;;;;;;;3.70;2.50;;;24.60;99.90;;;;;;5016843;28;20245;-52
2022/10/29 09:50:29;;;;;;;14.93;2.80;;;24.80;99.90;;;;;;5029346;28;20264;-52
2022/10/29 09:52:58;;;;;;;8.90;2.57;;;24.80;99.90;;;;;;5027431;28;20449;-53
2022/10/29 09:55:27;;;;;;;8.93;3.63;;;24.80;99.90;;;;;;5023967;28;20699;-52
2022/10/29 09:57:56;;;;;;;5.50;1.93;;;24.90;99.90;;;;;;5020872;28;20207;-52
2022/10/29 10:00:25;;;;;;;5.80;2.23;;;24.80;99.90;;;;;;5022623;28;20669;-52
2022/10/29 10:02:57;;;;;;;6.37;2.10;;;24.60;99.90;;;;;;5021974;28;20289;-52
2022/10/29 10:05:26;;;;;;;6.30;2.50;;;24.70;99.90;;;;;;5028570;28;20229;-52
2022/10/29 10:08:12;;;;;;;6.83;1.93;;;24.50;99.90;;;;;;5020695;28;20812;-52
2022/10/29 10:10:53;;;;;;;10.03;1.70;;;24.40;99.90;;;;;;5023263;28;20701;-52
2022/10/29 10:13:22;;;;;;;8.43;1.83;;;24.10;99.90;;;;;;5022640;28;20206;-52
2022/10/29 10:15:53;;;;;;;6.83;2.23;;;24.10;99.90;;;;;;5029896;28;20276;-52
2022/10/29 10:18:22;;;;;;;11.63;2.60;;;24.00;99.90;;;;;;5019589;28;20317;-52
2022/10/29 10:21:02;;;;;;;8.33;2.43;;;23.90;99.90;;;;;;5021598;28;20205;-52
2022/10/29 10:23:40;;;;;;;12.23;1.67;;;23.90;99.90;;;;;;5026294;28;20199;-51
2022/10/29 10:26:28;;;;;;;5.30;1.40;;;23.70;99.90;;;;;;5020225;28;20317;-52
2022/10/29 10:29:14;;;;;;;8.37;2.07;;;23.60;99.90;;;;;;5023400;28;20680;-51
2022/10/29 10:31:43;;;;;;;3.90;1.50;;;23.60;99.90;;;;;;5017427;28;20766;-52
2022/10/29 10:34:17;;;;;;;6.57;1.47;;;23.30;99.90;;;;;;5024387;28;20207;-53
2022/10/29 10:36:46;;;;;;;3.10;1.77;;;23.20;99.90;;;;;;5026986;28;20199;-52
2022/10/29 10:39:39;;;;;;;8.63;2.50;;;23.00;99.90;;;;;;5022982;28;20276;-52
2022/10/29 10:42:15;;;;;;;5.77;2.00;;;22.80;99.90;;;;;;5013785;28;20253;-52
2022/10/29 10:44:47;;;;;;;11.67;2.23;;;22.70;99.90;;;;;;5023061;28;20214;-53
2022/10/29 10:47:16;;;;;;;4.87;1.90;;;22.70;99.90;;;;;;5023653;28;20210;-52
2022/10/29 10:49:43;;;;;;;7.13;1.77;;;22.80;99.90;;;;;;5023277;28;20198;-52
2022/10/29 10:52:16;;;;;;;9.40;1.93;;;22.90;99.90;;;;;;5022490;28;20292;-52
2022/10/29 10:54:54;;;;;;;8.77;1.97;;;22.90;99.90;;;;;;5012091;28;20292;-52
2022/10/29 10:57:22;;;;;;;7.10;1.80;;;23.00;99.90;;;;;;5023165;28;20747;-53
2022/10/29 10:59:57;;;;;;;4.03;1.87;;;23.00;99.90;;;;;;5033804;28;20206;-51
2022/10/29 11:02:32;;;;;;;9.00;2.07;;;23.10;99.90;;;;;;5035243;28;20595;-52
2022/10/29 11:05:05;;;;;;;5.60;2.60;;;23.20;99.90;;;;;;5031580;28;20219;-52
2022/10/29 11:07:36;;;;;;;9.80;2.63;;;23.20;99.90;;;;;;5025381;28;20668;-53
2022/10/29 11:10:10;;;;;;;7.50;1.57;;;23.10;99.90;;;;;;5035398;28;20285;-52
2022/10/29 11:12:42;;;;;;;9.57;2.07;;;23.10;99.90;;;;;;5035000;28;20229;-52
2022/10/29 11:15:18;;;;;;;5.13;2.50;;;23.10;99.90;;;;;;5034850;28;20226;-52
2022/10/29 11:17:51;;;;;;;5.77;1.70;;;23.00;99.90;;;;;;5024662;28;20286;-52
2022/10/29 11:20:24;;;;;;;7.13;1.90;;;23.00;99.90;;;;;;5034676;28;20268;-52
2022/10/29 11:23:01;;;;;;;10.00;3.03;;;22.90;99.90;;;;;;5034329;28;20610;-52
2022/10/29 11:25:36;;;;;;;5.20;2.13;;;22.90;99.90;;;;;;5034099;28;20226;-52
2022/10/29 11:28:12;;;;;;;5.00;1.60;;;23.00;99.90;;;;;;5026024;28;20276;-52
2022/10/29 11:30:44;;;;;;;5.80;1.33;;;22.90;99.90;;;;;;5018987;28;20264;-53
2022/10/29 11:33:21;;;;;;;11.70;4.17;;;23.00;99.90;;;;;;5014162;28;20213;-51
2022/10/29 11:35:53;;;;;;;7.20;1.20;;;22.90;99.90;;;;;;5017331;28;20623;-52
2022/10/29 11:38:24;;;;;;;8.17;1.80;;;22.90;99.90;;;;;;5025290;28;20198;-52
2022/10/29 11:40:57;;;;;;;13.83;2.07;;;22.80;99.90;;;;;;5033356;28;20199;-52
2022/10/29 11:43:25;;;;;;;9.10;2.20;;;22.70;99.90;;;;;;5033031;28;20553;-52
2022/10/29 11:45:59;;;;;;;6.27;1.90;;;22.80;99.90;;;;;;5030984;28;20313;-52
2022/10/29 11:48:43;;;;;;;5.63;1.87;;;22.70;99.90;;;;;;5024645;28;20277;-52
2022/10/29 11:51:21;;;;;;;7.50;3.33;;;22.80;99.90;;;;;;5014109;28;20689;-52
2022/10/29 11:53:59;;;;;;;10.87;1.90;;;22.80;99.90;;;;;;5014050;28;20210;-52
2022/10/29 11:56:46;;;;;;;7.53;2.17;;;22.80;99.90;;;;;;5027887;28;20221;-53
2022/10/29 11:59:22;;;;;;;3.23;1.33;;;22.80;99.90;;;;;;5026256;28;20198;-52
2022/10/29 12:01:57;;;;;;;7.37;1.70;;;22.90;99.90;;;;;;5032233;28;20217;-51
2022/10/29 12:04:30;;;;;;;9.30;1.53;;;22.80;99.90;;;;;;5023640;28;20317;-52
2022/10/29 12:07:17;;;;;;;6.87;2.80;;;22.80;99.90;;;;;;5022419;28;20212;-53
2022/10/29 12:10:05;;;;;;;9.17;2.00;;;22.80;99.90;;;;;;5031824;28;20741;-52
2022/10/29 12:12:43;;;;;;;10.60;3.17;;;22.70;99.90;;;;;;5032220;28;20642;-51
2022/10/29 12:15:21;;;;;;;8.07;2.00;;;22.70;99.90;;;;;;5032034;28;20213;-52
2022/10/29 12:17:58;;;;;;;6.53;1.70;;;22.70;99.90;;;;;;5022888;28;20257;-52
2022/10/29 12:20:35;;;;;;;7.23;4.90;;;22.70;99.90;;;;;;5032710;28;20198;-51
2022/10/29 12:23:11;;;;;;;9.63;3.80;;;22.70;99.90;;;;;;5032516;28;20676;-51
2022/10/29 12:25:49;;;;;;;7.30;3.50;;;22.70;99.90;;;;;;5031810;28;20222;-52
2022/10/29 12:28:26;;;;;;;8.07;5.00;;;22.60;99.90;;;;;;5023817;28;20194;-52
2022/10/29 12:31:08;;;;;;;6.50;5.37;;;22.60;99.90;;;;;;5031595;28;20256;-51
2022/10/29 12:33:44;;;;;;;7.40;6.70;;;22.60;99.90;;;;;;5031524;28;20229;-52
2022/10/29 12:36:25;;;;;;;6.80;5.87;;;22.50;99.90;;;;;;5030942;28;20296;-52
2022/10/29 12:38:57;;;;;;;10.90;6.93;;;22.40;99.90;;;;;;5021517;28;20749;-52
2022/10/29 12:41:26;;;;;;;6.90;5.83;;;22.20;99.90;;;;;;5016574;28;20286;-51
2022/10/29 12:44:03;;;;;;;6.33;5.70;;;22.10;99.90;;;;;;5025006;28;20661;-52
2022/10/29 12:46:37;;;;;;;8.13;6.93;;;22.10;99.90;;;;;;5031969;28;20210;-52
2022/10/29 12:49:11;;;;;;;15.17;9.27;;;22.00;99.90;;;;;;5017698;28;20256;-52
2022/10/29 12:51:45;;;;;;;9.20;7.50;;;21.90;99.90;;;;;;5032599;28;20292;-52
2022/10/29 12:54:30;;;;;;;12.33;8.63;;;21.60;99.90;;;;;;5021455;28;20200;-52
2022/10/29 12:57:04;;;;;;;11.67;9.50;;;21.50;99.90;;;;;;5021127;28;20215;-52